Hovedside
METAR-TAF:

METAR-TAF

Lufthavner :

Mitiga International Airport

Tripoli, Libya

breddegrad: 32-54N, lengdegrad: 13-17E, høyde over havet: 11 m

METAR: fraværende

Tid: 13:31 (11:31 UTC)

Varsel

Denne rapporten ble laget for 18 timer og 31 minutter siden, klokken 17:00 UTC
Varsel gyldig fra 19. klokken 18 UTC til 20. klokken 18 UTC
Vind 8 kt fra Øst
Sikt: 8000 m
Blir
fra 20. klokken 10 UTC til 20. klokken 12 UTC
Vind 10 kt fra Øst-nordøst

TAF: HLLM 191700Z 1918/2018 10008KT 8000 NSC BECMG 2010/2012 06010KT

Værobservasjoner og værvarsel for over 4000 flyplasser (METAR- og TAF-rapporter).

Tilgjengelige stasjoner er representert av de røde og gule prikkene på kartet.

Hold musepekeren over prikken for å se navnet på stasjonen.

Klikk så for å se værobservasjoner og -varsler.

For å forandre kartet kan du klikke på den grønne knappen med svart kryss for å zoome inn, på den grønne knappen med strek for å zoome ut, eller på de grønne pilene for å se tilstøtende kart.


METAR-TAF: